sensor_id;sensor_type;location;lat;lon;timestamp;pressure;altitude;pressure_sealevel;temperature;humidity
55351;BME280;62194;49.480;10.986;2023-02-11T00:00:04;100189.28;;;-2.54;86.34
55351;BME280;62194;49.480;10.986;2023-02-11T00:00:11;100172.06;;;-2.58;86.36
55351;BME280;62194;49.480;10.986;2023-02-11T00:00:17;100180.22;;;-2.53;86.21
55351;BME280;62194;49.480;10.986;2023-02-11T00:00:22;100187.81;;;-2.50;86.50
55351;BME280;62194;49.480;10.986;2023-02-11T00:00:27;100187.00;;;-2.50;86.12
55351;BME280;62194;49.480;10.986;2023-02-11T00:00:33;100194.78;;;-2.49;86.23
55351;BME280;62194;49.480;10.986;2023-02-11T00:00:41;100175.31;;;-2.56;86.10
55351;BME280;62194;49.480;10.986;2023-02-11T00:00:46;100152.97;;;-2.68;86.28
55351;BME280;62194;49.480;10.986;2023-02-11T00:00:52;100179.63;;;-2.48;86.23
55351;BME280;62194;49.480;10.986;2023-02-11T00:00:57;100144.78;;;-2.73;86.12
55351;BME280;62194;49.480;10.986;2023-02-11T00:01:21;100185.75;;;-2.41;86.03
55351;BME280;62194;49.480;10.986;2023-02-11T00:01:33;100183.25;;;-2.43;85.70
55351;BME280;62194;49.480;10.986;2023-02-11T00:01:39;100140.06;;;-2.71;85.56
55351;BME280;62194;49.480;10.986;2023-02-11T00:01:45;100185.13;;;-2.43;85.75
55351;BME280;62194;49.480;10.986;2023-02-11T00:01:50;100155.81;;;-2.63;85.88
55351;BME280;62194;49.480;10.986;2023-02-11T00:01:55;100182.44;;;-2.43;85.48
55351;BME280;62194;49.480;10.986;2023-02-11T00:02:01;100176.09;;;-2.49;85.77
55351;BME280;62194;49.480;10.986;2023-02-11T00:02:06;100156.88;;;-2.64;85.63
55351;BME280;62194;49.480;10.986;2023-02-11T00:02:12;100154.59;;;-2.61;85.74
55351;BME280;62194;49.480;10.986;2023-02-11T00:02:17;100187.19;;;-2.39;85.73
55351;BME280;62194;49.480;10.986;2023-02-11T00:02:22;100129.41;;;-2.78;85.46
55351;BME280;62194;49.480;10.986;2023-02-11T00:02:30;100193.34;;;-2.38;85.74
55351;BME280;62194;49.480;10.986;2023-02-11T00:02:35;100162.56;;;-2.54;85.83
55351;BME280;62194;49.480;10.986;2023-02-11T00:02:41;100191.06;;;-2.34;85.67
55351;BME280;62194;49.480;10.986;2023-02-11T00:02:46;100161.53;;;-2.53;85.74
55351;BME280;62194;49.480;10.986;2023-02-11T00:02:51;100151.50;;;-2.57;85.59
55351;BME280;62194;49.480;10.986;2023-02-11T00:02:57;100141.66;;;-2.64;85.59
55351;BME280;62194;49.480;10.986;2023-02-11T00:03:02;100182.25;;;-2.42;85.61
55351;BME280;62194;49.480;10.986;2023-02-11T00:03:08;100192.28;;;-2.37;85.54
55351;BME280;62194;49.480;10.986;2023-02-11T00:03:13;100169.13;;;-2.50;85.59
55351;BME280;62194;49.480;10.986;2023-02-11T00:03:18;100161.13;;;-2.56;85.25
55351;BME280;62194;49.480;10.986;2023-02-11T00:03:24;100190.03;;;-2.40;85.56
55351;BME280;62194;49.480;10.986;2023-02-11T00:03:29;100184.69;;;-2.40;85.52
55351;BME280;62194;49.480;10.986;2023-02-11T00:03:35;100185.50;;;-2.40;85.55
55351;BME280;62194;49.480;10.986;2023-02-11T00:03:40;100145.78;;;-2.68;85.67
55351;BME280;62194;49.480;10.986;2023-02-11T00:03:45;100164.84;;;-2.57;85.39
55351;BME280;62194;49.480;10.986;2023-02-11T00:03:51;100182.25;;;-2.42;85.77
55351;BME280;62194;49.480;10.986;2023-02-11T00:03:58;100182.88;;;-2.46;85.79
55351;BME280;62194;49.480;10.986;2023-02-11T00:04:04;100184.31;;;-2.44;85.83
55351;BME280;62194;49.480;10.986;2023-02-11T00:04:10;100147.41;;;-2.67;85.90
55351;BME280;62194;49.480;10.986;2023-02-11T00:04:15;100169.38;;;-2.58;85.76
55351;BME280;62194;49.480;10.986;2023-02-11T00:04:20;100183.28;;;-2.49;86.02
55351;BME280;62194;49.480;10.986;2023-02-11T00:04:26;100153.56;;;-2.66;86.61
55351;BME280;62194;49.480;10.986;2023-02-11T00:04:31;100176.50;;;-2.52;86.79
55351;BME280;62194;49.480;10.986;2023-02-11T00:04:36;100192.94;;;-2.42;87.05
55351;BME280;62194;49.480;10.986;2023-02-11T00:04:42;100187.59;;;-2.42;86.94
55351;BME280;62194;49.480;10.986;2023-02-11T00:04:47;100151.72;;;-2.66;86.60
55351;BME280;62194;49.480;10.986;2023-02-11T00:04:52;100167.91;;;-2.54;86.32
55351;BME280;62194;49.480;10.986;2023-02-11T00:04:58;100161.13;;;-2.56;86.30
55351;BME280;62194;49.480;10.986;2023-02-11T00:05:05;100137.41;;;-2.78;86.33
55351;BME280;62194;49.480;10.986;2023-02-11T00:05:11;100186.75;;;-2.42;86.08
55351;BME280;62194;49.480;10.986;2023-02-11T00:05:16;100189.00;;;-2.39;86.51
55351;BME280;62194;49.480;10.986;2023-02-11T00:05:21;100188.19;;;-2.40;86.17
55351;BME280;62194;49.480;10.986;2023-02-11T00:05:27;100181.84;;;-2.39;86.01
55351;BME280;62194;49.480;10.986;2023-02-11T00:05:32;100192.28;;;-2.37;86.25
55351;BME280;62194;49.480;10.986;2023-02-11T00:05:38;100178.34;;;-2.46;85.76
55351;BME280;62194;49.480;10.986;2023-02-11T00:05:43;100170.56;;;-2.47;85.95
55351;BME280;62194;49.480;10.986;2023-02-11T00:06:04;100179.97;;;-2.38;85.90
55351;BME280;62194;49.480;10.986;2023-02-11T00:06:10;100169.53;;;-2.46;85.75
55351;BME280;62194;49.480;10.986;2023-02-11T00:06:16;100179.16;;;-2.39;85.72
55351;BME280;62194;49.480;10.986;2023-02-11T00:06:22;100188.00;;;-2.38;85.76
55351;BME280;62194;49.480;10.986;2023-02-11T00:06:29;100141.47;;;-2.69;85.82
55351;BME280;62194;49.480;10.986;2023-02-11T00:06:35;100165.41;;;-2.49;85.70
55351;BME280;62194;49.480;10.986;2023-02-11T00:06:41;100155.19;;;-2.59;85.39
55351;BME280;62194;49.480;10.986;2023-02-11T00:06:46;100175.50;;;-2.51;85.76
55351;BME280;62194;49.480;10.986;2023-02-11T00:06:51;100159.91;;;-2.54;85.75
55351;BME280;62194;49.480;10.986;2023-02-11T00:06:56;100161.13;;;-2.56;85.70
55351;BME280;62194;49.480;10.986;2023-02-11T00:07:02;100171.78;;;-2.50;85.79
55351;BME280;62194;49.480;10.986;2023-02-11T00:07:07;100161.56;;;-2.60;85.82
55351;BME280;62194;49.480;10.986;2023-02-11T00:07:12;100186.75;;;-2.42;86.39
55351;BME280;62194;49.480;10.986;2023-02-11T00:07:18;100123.03;;;-2.77;86.22
55351;BME280;62194;49.480;10.986;2023-02-11T00:07:23;100185.75;;;-2.41;86.24
55351;BME280;62194;49.480;10.986;2023-02-11T00:07:30;100158.06;;;-2.60;86.05
55351;BME280;62194;49.480;10.986;2023-02-11T00:07:35;100189.00;;;-2.39;86.76
55351;BME280;62194;49.480;10.986;2023-02-11T00:07:41;100170.97;;;-2.50;86.20
55351;BME280;62194;49.480;10.986;2023-02-11T00:07:46;100168.09;;;-2.55;86.14
55351;BME280;62194;49.480;10.986;2023-02-11T00:07:51;100164.84;;;-2.57;85.94
55351;BME280;62194;49.480;10.986;2023-02-11T00:07:56;100187.59;;;-2.42;86.01
55351;BME280;62194;49.480;10.986;2023-02-11T00:08:02;100161.94;;;-2.56;86.24
55351;BME280;62194;49.480;10.986;2023-02-11T00:08:07;100159.50;;;-2.57;85.83
55351;BME280;62194;49.480;10.986;2023-02-11T00:08:12;100161.13;;;-2.56;85.98
55351;BME280;62194;49.480;10.986;2023-02-11T00:08:21;100181.88;;;-2.45;86.31
55351;BME280;62194;49.480;10.986;2023-02-11T00:08:26;100138.78;;;-2.69;86.41
55351;BME280;62194;49.480;10.986;2023-02-11T00:08:32;100148.22;;;-2.60;86.20
55351;BME280;62194;49.480;10.986;2023-02-11T00:08:38;100132.66;;;-2.76;86.14
55351;BME280;62194;49.480;10.986;2023-02-11T00:08:43;100150.28;;;-2.62;86.22
55351;BME280;62194;49.480;10.986;2023-02-11T00:08:48;100168.31;;;-2.50;86.10
55351;BME280;62194;49.480;10.986;2023-02-11T00:08:54;100186.31;;;-2.39;86.31
55351;BME280;62194;49.480;10.986;2023-02-11T00:09:01;100164.81;;;-2.51;86.16
55351;BME280;62194;49.480;10.986;2023-02-11T00:09:06;100151.69;;;-2.59;86.34
55351;BME280;62194;49.480;10.986;2023-02-11T00:09:11;100150.06;;;-2.60;86.24
55351;BME280;62194;49.480;10.986;2023-02-11T00:09:17;100156.63;;;-2.56;86.07
55351;BME280;62194;49.480;10.986;2023-02-11T00:09:22;100173.22;;;-2.47;85.93
55351;BME280;62194;49.480;10.986;2023-02-11T00:09:27;100183.47;;;-2.38;86.01
55351;BME280;62194;49.480;10.986;2023-02-11T00:09:33;100182.66;;;-2.38;85.98
55351;BME280;62194;49.480;10.986;2023-02-11T00:09:38;100152.72;;;-2.60;86.00
55351;BME280;62194;49.480;10.986;2023-02-11T00:09:43;100164.41;;;-2.48;86.09
55351;BME280;62194;49.480;10.986;2023-02-11T00:09:49;100166.69;;;-2.51;86.05
55351;BME280;62194;49.480;10.986;2023-02-11T00:09:54;100166.03;;;-2.47;86.15
55351;BME280;62194;49.480;10.986;2023-02-11T00:10:00;100133.03;;;-2.66;85.99
55351;BME280;62194;49.480;10.986;2023-02-11T00:10:08;100153.75;;;-2.54;85.78
55351;BME280;62194;49.480;10.986;2023-02-11T00:10:14;100119.94;;;-2.74;85.93
55351;BME280;62194;49.480;10.986;2023-02-11T00:10:19;100133.03;;;-2.66;85.81
55351;BME280;62194;49.480;10.986;2023-02-11T00:10:24;100174.63;;;-2.38;85.88
55351;BME280;62194;49.480;10.986;2023-02-11T00:10:29;100127.72;;;-2.72;85.66
55351;BME280;62194;49.480;10.986;2023-02-11T00:10:35;100118.88;;;-2.73;85.96
55351;BME280;62194;49.480;10.986;2023-02-11T00:10:41;100134.06;;;-2.67;85.55
55351;BME280;62194;49.480;10.986;2023-02-11T00:10:50;100145.34;;;-2.58;85.86
55351;BME280;62194;49.480;10.986;2023-02-11T00:10:57;100172.59;;;-2.43;86.09
55351;BME280;62194;49.480;10.986;2023-02-11T00:11:03;100175.44;;;-2.38;85.92
55351;BME280;62194;49.480;10.986;2023-02-11T00:11:12;100173.81;;;-2.39;86.25
55351;BME280;62194;49.480;10.986;2023-02-11T00:11:20;100149.03;;;-2.59;86.16
55351;BME280;62194;49.480;10.986;2023-02-11T00:11:26;100141.44;;;-2.62;86.03
55351;BME280;62194;49.480;10.986;2023-02-11T00:11:34;100177.31;;;-2.38;86.08
55351;BME280;62194;49.480;10.986;2023-02-11T00:11:40;100164.56;;;-2.43;85.93
55351;BME280;62194;49.480;10.986;2023-02-11T00:11:45;100159.22;;;-2.43;85.88
55351;BME280;62194;49.480;10.986;2023-02-11T00:11:50;100159.03;;;-2.41;85.57
55351;BME280;62194;49.480;10.986;2023-02-11T00:11:55;100147.56;;;-2.48;85.73
55351;BME280;62194;49.480;10.986;2023-02-11T00:12:01;100131.13;;;-2.59;85.70
55351;BME280;62194;49.480;10.986;2023-02-11T00:12:06;100171.94;;;-2.31;85.88
55351;BME280;62194;49.480;10.986;2023-02-11T00:12:11;100142.41;;;-2.50;85.57
55351;BME280;62194;49.480;10.986;2023-02-11T00:12:17;100148.78;;;-2.51;85.53
55351;BME280;62194;49.480;10.986;2023-02-11T00:12:23;100117.81;;;-2.65;85.52
55351;BME280;62194;49.480;10.986;2023-02-11T00:12:29;100139.34;;;-2.53;85.67
55351;BME280;62194;49.480;10.986;2023-02-11T00:12:35;100173.78;;;-2.32;85.37
55351;BME280;62194;49.480;10.986;2023-02-11T00:12:41;100179.13;;;-2.32;85.23
55351;BME280;62194;49.480;10.986;2023-02-11T00:12:47;100149.63;;;-2.50;85.12
55351;BME280;62194;49.480;10.986;2023-02-11T00:12:52;100135.91;;;-2.61;85.37
55351;BME280;62194;49.480;10.986;2023-02-11T00:12:57;100172.13;;;-2.33;85.43
55351;BME280;62194;49.480;10.986;2023-02-11T00:13:03;100159.03;;;-2.41;85.46
55351;BME280;62194;49.480;10.986;2023-02-11T00:13:08;100129.50;;;-2.60;85.26
55351;BME280;62194;49.480;10.986;2023-02-11T00:13:13;100149.63;;;-2.50;85.37
55351;BME280;62194;49.480;10.986;2023-02-11T00:13:19;100140.56;;;-2.49;85.52
55351;BME280;62194;49.480;10.986;2023-02-11T00:13:24;100166.81;;;-2.40;85.43
55351;BME280;62194;49.480;10.986;2023-02-11T00:13:29;100122.75;;;-2.62;85.34
55351;BME280;62194;49.480;10.986;2023-02-11T00:13:35;100184.47;;;-2.32;85.43
55351;BME280;62194;49.480;10.986;2023-02-11T00:13:42;100142.03;;;-2.53;85.60
55351;BME280;62194;49.480;10.986;2023-02-11T00:13:48;100160.66;;;-2.40;85.50
55351;BME280;62194;49.480;10.986;2023-02-11T00:13:53;100166.63;;;-2.38;85.33
55351;BME280;62194;49.480;10.986;2023-02-11T00:14:02;100180.75;;;-2.31;85.56
55351;BME280;62194;49.480;10.986;2023-02-11T00:14:09;100159.03;;;-2.41;85.24
55351;BME280;62194;49.480;10.986;2023-02-11T00:14:15;100116.41;;;-2.68;85.12
55351;BME280;62194;49.480;10.986;2023-02-11T00:14:20;100124.16;;;-2.60;85.30
55351;BME280;62194;49.480;10.986;2023-02-11T00:14:26;100178.72;;;-2.29;85.26
55351;BME280;62194;49.480;10.986;2023-02-11T00:14:31;100168.84;;;-2.28;85.42
55351;BME280;62194;49.480;10.986;2023-02-11T00:14:36;100125.59;;;-2.57;85.34
55351;BME280;62194;49.480;10.986;2023-02-11T00:14:42;100144.47;;;-2.45;85.16
55351;BME280;62194;49.480;10.986;2023-02-11T00:14:47;100136.25;;;-2.50;85.24
55351;BME280;62194;49.480;10.986;2023-02-11T00:14:52;100159.00;;;-2.34;85.18
55351;BME280;62194;49.480;10.986;2023-02-11T00:14:58;100177.44;;;-2.26;84.95
55351;BME280;62194;49.480;10.986;2023-02-11T00:15:05;100177.66;;;-2.28;85.21
55351;BME280;62194;49.480;10.986;2023-02-11T00:15:11;100119.66;;;-2.59;85.26
55351;BME280;62194;49.480;10.986;2023-02-11T00:15:17;100132.53;;;-2.49;85.42
55351;BME280;62194;49.480;10.986;2023-02-11T00:15:22;100161.88;;;-2.36;85.49
55351;BME280;62194;49.480;10.986;2023-02-11T00:15:27;100134.00;;;-2.53;85.49
55351;BME280;62194;49.480;10.986;2023-02-11T00:15:33;100164.72;;;-2.31;85.42
55351;BME280;62194;49.480;10.986;2023-02-11T00:15:38;100129.72;;;-2.54;85.71
55351;BME280;62194;49.480;10.986;2023-02-11T00:15:43;100174.56;;;-2.25;85.31
55351;BME280;62194;49.480;10.986;2023-02-11T00:15:49;100130.69;;;-2.49;85.41
55351;BME280;62194;49.480;10.986;2023-02-11T00:15:55;100147.53;;;-2.42;86.09
55351;BME280;62194;49.480;10.986;2023-02-11T00:16:05;100161.78;;;-2.23;85.34
55351;BME280;62194;49.480;10.986;2023-02-11T00:16:16;100175.13;;;-2.16;85.03
55351;BME280;62194;49.480;10.986;2023-02-11T00:16:22;100157.28;;;-2.22;84.99
55351;BME280;62194;49.480;10.986;2023-02-11T00:16:28;100170.78;;;-2.10;85.00
55351;BME280;62194;49.480;10.986;2023-02-11T00:16:33;100114.63;;;-2.42;85.21
55351;BME280;62194;49.480;10.986;2023-02-11T00:16:39;100127.13;;;-2.36;84.83
55351;BME280;62194;49.480;10.986;2023-02-11T00:16:44;100135.72;;;-2.27;84.68
55351;BME280;62194;49.480;10.986;2023-02-11T00:16:49;100155.00;;;-2.19;84.77
55351;BME280;62194;49.480;10.986;2023-02-11T00:16:54;100121.63;;;-2.41;84.54
55351;BME280;62194;49.480;10.986;2023-02-11T00:17:00;100169.97;;;-2.11;84.73
55351;BME280;62194;49.480;10.986;2023-02-11T00:17:05;100140.69;;;-2.31;84.44
55351;BME280;62194;49.480;10.986;2023-02-11T00:17:10;100147.41;;;-2.22;84.35
55351;BME280;62194;49.480;10.986;2023-02-11T00:17:16;100132.28;;;-2.34;84.76
55351;BME280;62194;49.480;10.986;2023-02-11T00:17:21;100129.19;;;-2.31;84.51
55351;BME280;62194;49.480;10.986;2023-02-11T00:17:26;100132.00;;;-2.26;84.64
55351;BME280;62194;49.480;10.986;2023-02-11T00:17:32;100140.81;;;-2.19;84.27
55351;BME280;62194;49.480;10.986;2023-02-11T00:17:37;100137.31;;;-2.20;84.01
55351;BME280;62194;49.480;10.986;2023-02-11T00:17:42;100130.72;;;-2.17;84.19
55351;BME280;62194;49.480;10.986;2023-02-11T00:17:48;100132.16;;;-2.15;84.31
55351;BME280;62194;49.480;10.986;2023-02-11T00:17:53;100157.13;;;-1.96;84.10
55351;BME280;62194;49.480;10.986;2023-02-11T00:17:58;100146.09;;;-2.06;83.68
55351;BME280;62194;49.480;10.986;2023-02-11T00:18:04;100125.38;;;-2.17;83.53
55351;BME280;62194;49.480;10.986;2023-02-11T00:18:09;100160.38;;;-1.94;83.60
55351;BME280;62194;49.480;10.986;2023-02-11T00:18:14;100145.63;;;-2.03;83.43
55351;BME280;62194;49.480;10.986;2023-02-11T00:18:20;100155.03;;;-1.94;83.56
55351;BME280;62194;49.480;10.986;2023-02-11T00:18:26;100139.69;;;-2.05;83.21
55351;BME280;62194;49.480;10.986;2023-02-11T00:18:32;100161.44;;;-1.95;83.48
55351;BME280;62194;49.480;10.986;2023-02-11T00:18:37;100125.00;;;-2.21;83.79
55351;BME280;62194;49.480;10.986;2023-02-11T00:18:43;100142.38;;;-2.05;83.67
55351;BME280;62194;49.480;10.986;2023-02-11T00:18:49;100150.97;;;-2.03;83.47
55351;BME280;62194;49.480;10.986;2023-02-11T00:18:54;100132.34;;;-2.16;83.49
55351;BME280;62194;49.480;10.986;2023-02-11T00:19:01;100169.44;;;-1.95;83.63
55351;BME280;62194;49.480;10.986;2023-02-11T00:19:06;100117.41;;;-2.24;83.54
55351;BME280;62194;49.480;10.986;2023-02-11T00:19:12;100163.50;;;-1.97;83.43
55351;BME280;62194;49.480;10.986;2023-02-11T00:19:17;100161.84;;;-1.98;84.04
55351;BME280;62194;49.480;10.986;2023-02-11T00:19:22;100157.78;;;-2.07;83.64
55351;BME280;62194;49.480;10.986;2023-02-11T00:19:27;100142.06;;;-2.22;83.83
55351;BME280;62194;49.480;10.986;2023-02-11T00:19:33;100152.50;;;-2.14;83.52
55351;BME280;62194;49.480;10.986;2023-02-11T00:19:38;100132.81;;;-2.26;83.81
55351;BME280;62194;49.480;10.986;2023-02-11T00:19:44;100124.25;;;-2.34;84.00
55351;BME280;62194;49.480;10.986;2023-02-11T00:19:52;100148.44;;;-2.23;83.70
55351;BME280;62194;49.480;10.986;2023-02-11T00:19:57;100156.84;;;-2.19;84.12
55351;BME280;62194;49.480;10.986;2023-02-11T00:20:03;100141.28;;;-2.29;83.95
55351;BME280;62194;49.480;10.986;2023-02-11T00:20:08;100154.38;;;-2.21;84.07
55351;BME280;62194;49.480;10.986;2023-02-11T00:20:14;100171.41;;;-2.08;83.96
55351;BME280;62194;49.480;10.986;2023-02-11T00:20:19;100128.19;;;-2.37;84.02
55351;BME280;62194;49.480;10.986;2023-02-11T00:20:24;100169.56;;;-2.15;83.78
55351;BME280;62194;49.480;10.986;2023-02-11T00:20:30;100162.19;;;-2.19;83.94
55351;BME280;62194;49.480;10.986;2023-02-11T00:20:37;100170.78;;;-2.10;84.13
55351;BME280;62194;49.480;10.986;2023-02-11T00:20:43;100163.44;;;-2.22;84.25
55351;BME280;62194;49.480;10.986;2023-02-11T00:20:48;100158.69;;;-2.20;84.50
55351;BME280;62194;49.480;10.986;2023-02-11T00:20:54;100161.59;;;-2.21;84.24
55351;BME280;62194;49.480;10.986;2023-02-11T00:20:59;100169.16;;;-2.12;84.35
55351;BME280;62194;49.480;10.986;2023-02-11T00:21:16;100172.88;;;-2.13;84.25
55351;BME280;62194;49.480;10.986;2023-02-11T00:21:23;100168.34;;;-2.12;84.26
55351;BME280;62194;49.480;10.986;2023-02-11T00:21:29;100117.94;;;-2.47;84.34
55351;BME280;62194;49.480;10.986;2023-02-11T00:21:35;100143.13;;;-2.29;84.36
55351;BME280;62194;49.480;10.986;2023-02-11T00:21:40;100168.53;;;-2.14;84.54
55351;BME280;62194;49.480;10.986;2023-02-11T00:21:45;100125.72;;;-2.39;84.40
55351;BME280;62194;49.480;10.986;2023-02-11T00:21:50;100138.84;;;-2.37;84.13
55351;BME280;62194;49.480;10.986;2023-02-11T00:21:56;100161.59;;;-2.21;84.52
55351;BME280;62194;49.480;10.986;2023-02-11T00:22:01;100126.97;;;-2.41;84.18
55351;BME280;62194;49.480;10.986;2023-02-11T00:22:06;100156.69;;;-2.24;84.45
55351;BME280;62194;49.480;10.986;2023-02-11T00:22:12;100130.47;;;-2.41;84.35
55351;BME280;62194;49.480;10.986;2023-02-11T00:22:17;100166.91;;;-2.15;84.40
55351;BME280;62194;49.480;10.986;2023-02-11T00:22:23;100169.19;;;-2.18;84.51
55351;BME280;62194;49.480;10.986;2023-02-11T00:22:29;100167.94;;;-2.16;84.46
55351;BME280;62194;49.480;10.986;2023-02-11T00:22:34;100128.41;;;-2.39;84.40
55351;BME280;62194;49.480;10.986;2023-02-11T00:22:40;100154.19;;;-2.26;84.43
55351;BME280;62194;49.480;10.986;2023-02-11T00:22:45;100153.63;;;-2.28;84.46
55351;BME280;62194;49.480;10.986;2023-02-11T00:22:50;100173.28;;;-2.16;84.67
55351;BME280;62194;49.480;10.986;2023-02-11T00:22:55;100127.16;;;-2.43;84.37
55351;BME280;62194;49.480;10.986;2023-02-11T00:23:01;100143.78;;;-2.34;84.47
55351;BME280;62194;49.480;10.986;2023-02-11T00:23:06;100156.06;;;-2.26;84.52
55351;BME280;62194;49.480;10.986;2023-02-11T00:23:12;100129.03;;;-2.43;84.60
55351;BME280;62194;49.480;10.986;2023-02-11T00:23:17;100150.31;;;-2.30;84.59
55351;BME280;62194;49.480;10.986;2023-02-11T00:23:23;100129.25;;;-2.45;84.56
55351;BME280;62194;49.480;10.986;2023-02-11T00:23:28;100134.59;;;-2.45;84.60
55351;BME280;62194;49.480;10.986;2023-02-11T00:23:34;100167.53;;;-2.19;84.40
55351;BME280;62194;49.480;10.986;2023-02-11T00:23:39;100130.25;;;-2.46;84.31
55351;BME280;62194;49.480;10.986;2023-02-11T00:23:45;100165.47;;;-2.17;84.52
55351;BME280;62194;49.480;10.986;2023-02-11T00:23:51;100142.16;;;-2.35;84.23
55351;BME280;62194;49.480;10.986;2023-02-11T00:23:58;100168.16;;;-2.17;84.29
55351;BME280;62194;49.480;10.986;2023-02-11T00:24:06;100172.66;;;-2.18;84.30
55351;BME280;62194;49.480;10.986;2023-02-11T00:24:11;100161.59;;;-2.21;84.41
55351;BME280;62194;49.480;10.986;2023-02-11T00:24:16;100118.19;;;-2.48;84.34
55351;BME280;62194;49.480;10.986;2023-02-11T00:24:22;100170.81;;;-2.17;84.49
55351;BME280;62194;49.480;10.986;2023-02-11T00:24:27;100168.97;;;-2.17;84.35
55351;BME280;62194;49.480;10.986;2023-02-11T00:24:35;100123.69;;;-2.43;84.29
55351;BME280;62194;49.480;10.986;2023-02-11T00:24:40;100135.38;;;-2.38;84.34
55351;BME280;62194;49.480;10.986;2023-02-11T00:24:46;100108.13;;;-2.53;84.34
55351;BME280;62194;49.480;10.986;2023-02-11T00:24:51;100163.03;;;-2.19;84.57
55351;BME280;62194;49.480;10.986;2023-02-11T00:24:56;100160.16;;;-2.24;84.93
55351;BME280;62194;49.480;10.986;2023-02-11T00:25:02;100163.03;;;-2.19;84.69
55351;BME280;62194;49.480;10.986;2023-02-11T00:25:08;100134.56;;;-2.38;84.91
55351;BME280;62194;49.480;10.986;2023-02-11T00:25:13;100149.91;;;-2.27;85.16
55351;BME280;62194;49.480;10.986;2023-02-11T00:25:18;100147.88;;;-2.31;85.04
55351;BME280;62194;49.480;10.986;2023-02-11T00:25:24;100141.28;;;-2.29;84.63
55351;BME280;62194;49.480;10.986;2023-02-11T00:25:29;100113.66;;;-2.48;84.98
55351;BME280;62194;49.480;10.986;2023-02-11T00:25:39;100160.34;;;-2.19;85.03
55351;BME280;62194;49.480;10.986;2023-02-11T00:25:44;100144.78;;;-2.28;84.80
55351;BME280;62194;49.480;10.986;2023-02-11T00:25:50;100116.09;;;-2.46;84.70
55351;BME280;62194;49.480;10.986;2023-02-11T00:25:55;100162.59;;;-2.16;84.72
55351;BME280;62194;49.480;10.986;2023-02-11T00:26:01;100116.47;;;-2.43;84.56
55351;BME280;62194;49.480;10.986;2023-02-11T00:26:17;100103.00;;;-2.54;84.67
55351;BME280;62194;49.480;10.986;2023-02-11T00:26:28;100156.22;;;-2.15;84.67
55351;BME280;62194;49.480;10.986;2023-02-11T00:26:34;100158.50;;;-2.18;84.09
55351;BME280;62194;49.480;10.986;2023-02-11T00:26:39;100149.47;;;-2.24;84.33
55351;BME280;62194;49.480;10.986;2023-02-11T00:26:45;100163.41;;;-2.15;84.20
55351;BME280;62194;49.480;10.986;2023-02-11T00:26:50;100124.88;;;-2.39;84.12
55351;BME280;62194;49.480;10.986;2023-02-11T00:26:55;100110.56;;;-2.45;84.06
55351;BME280;62194;49.480;10.986;2023-02-11T00:27:01;100151.53;;;-2.26;84.30
55351;BME280;62194;49.480;10.986;2023-02-11T00:27:06;100151.72;;;-2.21;84.38
55351;BME280;62194;49.480;10.986;2023-02-11T00:27:12;100158.06;;;-2.15;84.02
55351;BME280;62194;49.480;10.986;2023-02-11T00:27:17;100103.38;;;-2.51;84.04
55351;BME280;62194;49.480;10.986;2023-02-11T00:27:22;100143.75;;;-2.27;83.84
55351;BME280;62194;49.480;10.986;2023-02-11T00:27:28;100160.13;;;-2.17;83.77
55351;BME280;62194;49.480;10.986;2023-02-11T00:27:35;100158.09;;;-2.22;84.07
55351;BME280;62194;49.480;10.986;2023-02-11T00:27:40;100153.56;;;-2.21;84.08
55351;BME280;62194;49.480;10.986;2023-02-11T00:27:46;100161.75;;;-2.16;84.07
55351;BME280;62194;49.480;10.986;2023-02-11T00:27:51;100135.53;;;-2.32;84.22
55351;BME280;62194;49.480;10.986;2023-02-11T00:27:56;100099.28;;;-2.53;83.99
55351;BME280;62194;49.480;10.986;2023-02-11T00:28:02;100084.97;;;-2.66;83.81
55351;BME280;62194;49.480;10.986;2023-02-11T00:28:08;100102.78;;;-2.53;83.57
55351;BME280;62194;49.480;10.986;2023-02-11T00:28:13;100112.59;;;-2.47;83.74
55351;BME280;62194;49.480;10.986;2023-02-11T00:28:18;100135.97;;;-2.29;83.89
55351;BME280;62194;49.480;10.986;2023-02-11T00:28:24;100115.09;;;-2.45;84.11
55351;BME280;62194;49.480;10.986;2023-02-11T00:28:29;100161.97;;;-2.18;84.41
55351;BME280;62194;49.480;10.986;2023-02-11T00:28:34;100142.69;;;-2.26;84.24
55351;BME280;62194;49.480;10.986;2023-02-11T00:28:40;100105.63;;;-2.48;84.48
55351;BME280;62194;49.480;10.986;2023-02-11T00:28:46;100136.16;;;-2.30;84.57
55351;BME280;62194;49.480;10.986;2023-02-11T00:28:52;100151.50;;;-2.19;84.45
55351;BME280;62194;49.480;10.986;2023-02-11T00:28:58;100160.50;;;-2.14;84.38
55351;BME280;62194;49.480;10.986;2023-02-11T00:29:05;100156.84;;;-2.19;84.27
55351;BME280;62194;49.480;10.986;2023-02-11T00:29:10;100150.47;;;-2.18;84.14
55351;BME280;62194;49.480;10.986;2023-02-11T00:29:15;100144.56;;;-2.27;84.18
55351;BME280;62194;49.480;10.986;2023-02-11T00:29:21;100138.16;;;-2.26;84.23
55351;BME280;62194;49.480;10.986;2023-02-11T00:29:26;100152.53;;;-2.20;84.13
55351;BME280;62194;49.480;10.986;2023-02-11T00:29:35;100137.16;;;-2.25;84.05
55351;BME280;62194;49.480;10.986;2023-02-11T00:29:41;100137.78;;;-2.29;84.15
55351;BME280;62194;49.480;10.986;2023-02-11T00:29:46;100150.25;;;-2.17;84.26
55351;BME280;62194;49.480;10.986;2023-02-11T00:29:52;100142.50;;;-2.25;84.38
55351;BME280;62194;49.480;10.986;2023-02-11T00:29:57;100149.66;;;-2.19;84.25
55351;BME280;62194;49.480;10.986;2023-02-11T00:30:05;100123.66;;;-2.37;84.06
55351;BME280;62194;49.480;10.986;2023-02-11T00:30:10;100109.75;;;-2.45;84.02
55351;BME280;62194;49.480;10.986;2023-02-11T00:30:16;100161.75;;;-2.16;84.17
55351;BME280;62194;49.480;10.986;2023-02-11T00:30:21;100147.41;;;-2.22;83.75
55351;BME280;62194;49.480;10.986;2023-02-11T00:30:26;100132.06;;;-2.33;83.95
55351;BME280;62194;49.480;10.986;2023-02-11T00:30:32;100133.28;;;-2.29;84.01
55351;BME280;62194;49.480;10.986;2023-02-11T00:30:37;100154.59;;;-2.16;84.27